createdAt,value
2022-09-17T00:00:45.659Z,11.7
2022-09-17T00:01:49.226Z,11.8
2022-09-17T00:02:52.691Z,11.8
2022-09-17T00:03:56.556Z,11.8
2022-09-17T00:04:59.389Z,11.8
2022-09-17T00:06:03.146Z,11.8
2022-09-17T00:07:07.351Z,11.9
2022-09-17T00:08:09.944Z,11.8
2022-09-17T00:09:13.142Z,11.8
2022-09-17T00:10:15.936Z,11.8
2022-09-17T00:11:18.825Z,11.8
2022-09-17T00:12:21.698Z,11.8
2022-09-17T00:13:24.489Z,11.7
2022-09-17T00:14:27.371Z,11.7
2022-09-17T00:15:30.620Z,11.8
2022-09-17T00:16:33.528Z,11.9
2022-09-17T00:17:37.050Z,11.9
2022-09-17T00:18:40.225Z,11.9
2022-09-17T00:19:43.215Z,11.8
2022-09-17T00:20:45.850Z,11.8
2022-09-17T00:21:49.071Z,11.9
2022-09-17T00:22:53.303Z,11.9
2022-09-17T00:23:56.103Z,11.9
2022-09-17T00:24:58.945Z,11.9
2022-09-17T00:26:02.234Z,11.8
2022-09-17T00:27:05.232Z,11.7
2022-09-17T00:28:08.718Z,11.8
2022-09-17T00:29:10.950Z,11.8
2022-09-17T00:30:14.025Z,11.8
2022-09-17T00:31:17.998Z,11.8
2022-09-17T00:32:21.516Z,11.7
2022-09-17T00:33:24.741Z,11.8
2022-09-17T00:34:28.175Z,11.7
2022-09-17T00:35:31.169Z,11.8
2022-09-17T00:36:34.365Z,11.7
2022-09-17T00:37:38.161Z,11.7
2022-09-17T00:38:42.606Z,11.6
2022-09-17T00:39:45.420Z,11.8
2022-09-17T00:40:48.430Z,11.8
2022-09-17T00:41:51.609Z,11.8
2022-09-17T00:42:54.428Z,11.8
2022-09-17T00:43:57.580Z,11.8
2022-09-17T00:45:00.700Z,11.7
2022-09-17T00:46:03.931Z,11.7
2022-09-17T00:47:06.844Z,11.8
2022-09-17T00:48:10.466Z,11.8
2022-09-17T00:49:14.275Z,11.8
2022-09-17T00:50:17.349Z,11.9
2022-09-17T00:51:20.415Z,11.9
2022-09-17T00:52:23.142Z,11.9
2022-09-17T00:53:26.588Z,11.9
2022-09-17T00:54:30.551Z,11.9
2022-09-17T00:55:32.796Z,11.9
2022-09-17T00:56:35.519Z,11.9
2022-09-17T00:57:37.950Z,11.9
2022-09-17T00:58:42.768Z,11.9
2022-09-17T00:59:45.982Z,11.9
2022-09-17T01:00:49.597Z,11.9
2022-09-17T01:01:52.865Z,11.9
2022-09-17T01:02:56.451Z,11.9
2022-09-17T01:03:59.735Z,11.9
2022-09-17T01:05:02.525Z,11.9
2022-09-17T01:06:05.121Z,11.8
2022-09-17T01:07:07.699Z,11.8
2022-09-17T01:08:10.945Z,11.8
2022-09-17T01:09:14.469Z,11.8
2022-09-17T01:10:18.914Z,11.9
2022-09-17T01:11:21.984Z,11.9
2022-09-17T01:12:24.148Z,11.9
2022-09-17T01:13:27.877Z,11.9
2022-09-17T01:14:31.149Z,11.9
2022-09-17T01:15:33.550Z,11.9
2022-09-17T01:16:37.101Z,12
2022-09-17T01:17:40.492Z,12
2022-09-17T01:18:43.600Z,11.9
2022-09-17T01:19:46.477Z,12
2022-09-17T01:20:49.419Z,12
2022-09-17T01:21:52.500Z,11.8
2022-09-17T01:22:55.484Z,11.8
2022-09-17T01:23:58.753Z,11.8
2022-09-17T01:25:01.559Z,11.8
2022-09-17T01:26:05.721Z,11.8
2022-09-17T01:27:08.239Z,11.9
2022-09-17T01:28:10.202Z,11.8
2022-09-17T01:29:13.342Z,12
2022-09-17T01:30:15.867Z,11.9
2022-09-17T01:31:18.794Z,11.9
2022-09-17T01:32:21.691Z,11.7
2022-09-17T01:33:24.019Z,11.7
2022-09-17T01:34:27.002Z,11.8
2022-09-17T01:35:29.792Z,11.7
2022-09-17T01:36:32.800Z,11.8
2022-09-17T01:37:36.145Z,11.8
2022-09-17T01:38:39.215Z,11.9
2022-09-17T01:39:42.203Z,11.9
2022-09-17T01:40:45.705Z,11.8
2022-09-17T01:41:50.137Z,11.8
2022-09-17T01:42:52.941Z,11.9
2022-09-17T01:43:55.173Z,11.9
2022-09-17T01:44:58.624Z,11.8
2022-09-17T01:46:01.339Z,11.9
2022-09-17T01:47:03.930Z,11.9
2022-09-17T01:48:07.001Z,11.9
2022-09-17T01:49:09.756Z,11.9
2022-09-17T01:50:12.286Z,11.9
2022-09-17T01:51:16.021Z,11.8
2022-09-17T01:52:18.266Z,11.8
2022-09-17T01:53:20.586Z,11.8
2022-09-17T01:54:22.903Z,11.7
2022-09-17T01:55:26.094Z,11.8
2022-09-17T01:56:29.734Z,11.7
2022-09-17T01:57:33.960Z,11.8
2022-09-17T01:58:36.309Z,11.8
2022-09-17T01:59:39.296Z,11.8
2022-09-17T02:00:42.991Z,11.7
2022-09-17T02:01:46.658Z,11.8
2022-09-17T02:02:50.467Z,11.7
2022-09-17T02:03:53.328Z,11.6
2022-09-17T02:04:56.118Z,11.8
2022-09-17T02:05:58.919Z,11.8
2022-09-17T02:07:01.706Z,11.8
2022-09-17T02:08:04.140Z,11.7
2022-09-17T02:09:06.647Z,11.6
2022-09-17T02:10:09.323Z,11.7
2022-09-17T02:11:12.270Z,11.8
2022-09-17T02:12:15.697Z,11.7
2022-09-17T02:13:20.199Z,11.7
2022-09-17T02:14:23.369Z,11.7
2022-09-17T02:15:25.902Z,11.6
2022-09-17T02:16:29.004Z,11.5
2022-09-17T02:17:32.153Z,11.5
2022-09-17T02:18:35.303Z,11.6
2022-09-17T02:19:38.741Z,11.7
2022-09-17T02:20:41.054Z,11.7
2022-09-17T02:21:44.778Z,11.6
2022-09-17T02:22:48.388Z,11.6
2022-09-17T02:23:51.561Z,11.7
2022-09-17T02:24:54.344Z,11.7
2022-09-17T02:25:57.139Z,11.7
2022-09-17T02:27:00.051Z,11.7
2022-09-17T02:28:05.842Z,11.6
2022-09-17T02:29:10.068Z,11.6
2022-09-17T02:30:13.238Z,11.7
2022-09-17T02:31:16.216Z,11.8
2022-09-17T02:32:18.797Z,11.6
2022-09-17T02:33:21.872Z,11.7
2022-09-17T02:34:24.587Z,11.7
2022-09-17T02:35:27.465Z,11.6
2022-09-17T02:36:30.659Z,11.7
2022-09-17T02:37:33.606Z,11.6
2022-09-17T02:38:36.322Z,11.7
2022-09-17T02:39:38.488Z,11.7
2022-09-17T02:40:41.385Z,11.7
2022-09-17T02:41:43.980Z,11.6
2022-09-17T02:42:47.208Z,11.7
2022-09-17T02:43:50.827Z,11.7
2022-09-17T02:44:55.087Z,11.7
2022-09-17T02:45:57.802Z,11.7
2022-09-17T02:47:01.022Z,11.5
2022-09-17T02:48:03.460Z,11.7
2022-09-17T02:49:05.698Z,11.7
2022-09-17T02:50:08.125Z,11.6
2022-09-17T02:51:11.347Z,11.6
2022-09-17T02:52:14.433Z,11.7
2022-09-17T02:53:17.613Z,11.6
2022-09-17T02:54:21.080Z,11.7
2022-09-17T02:55:24.073Z,11.6
2022-09-17T02:56:26.977Z,11.6
2022-09-17T02:57:30.353Z,11.8
2022-09-17T02:58:33.068Z,11.8
2022-09-17T02:59:35.937Z,11.8
2022-09-17T03:00:40.135Z,11.8
2022-09-17T03:01:42.828Z,11.7
2022-09-17T03:02:45.528Z,11.8
2022-09-17T03:03:48.125Z,11.8
2022-09-17T03:04:51.570Z,11.7
2022-09-17T03:05:54.367Z,11.5
2022-09-17T03:06:57.261Z,11.6
2022-09-17T03:08:00.404Z,11.6
2022-09-17T03:09:03.502Z,11.6
2022-09-17T03:10:06.949Z,11.7
2022-09-17T03:11:09.757Z,11.8
2022-09-17T03:12:12.472Z,11.6
2022-09-17T03:13:15.543Z,11.6
2022-09-17T03:14:19.171Z,11.8
2022-09-17T03:15:22.306Z,11.8
2022-09-17T03:16:27.122Z,11.7
2022-09-17T03:17:29.807Z,11.7
2022-09-17T03:18:32.688Z,11.6
2022-09-17T03:19:35.501Z,11.7
2022-09-17T03:20:38.841Z,11.7
2022-09-17T03:21:41.453Z,11.7
2022-09-17T03:22:44.635Z,11.6
2022-09-17T03:23:47.936Z,11.7
2022-09-17T03:24:51.202Z,11.7
2022-09-17T03:25:54.270Z,11.8
2022-09-17T03:26:57.372Z,11.8
2022-09-17T03:28:00.156Z,11.8
2022-09-17T03:29:02.667Z,11.8
2022-09-17T03:30:05.859Z,11.7
2022-09-17T03:31:09.843Z,11.7
2022-09-17T03:32:14.132Z,11.8
2022-09-17T03:33:17.028Z,11.7
2022-09-17T03:34:19.926Z,11.7
2022-09-17T03:35:22.993Z,11.6
2022-09-17T03:36:25.709Z,11.8
2022-09-17T03:37:34.493Z,11.8
2022-09-17T03:38:37.377Z,11.7
2022-09-17T03:39:40.546Z,11.7
2022-09-17T03:40:43.967Z,11.7
2022-09-17T03:41:46.762Z,11.7
2022-09-17T03:42:49.872Z,11.7
2022-09-17T03:43:52.315Z,11.7
2022-09-17T03:44:55.553Z,11.8
2022-09-17T03:45:59.378Z,11.7
2022-09-17T03:47:03.825Z,11.7
2022-09-17T03:48:08.058Z,11.7
2022-09-17T03:49:10.576Z,11.7
2022-09-17T03:50:13.649Z,11.7
2022-09-17T03:51:16.995Z,11.6
2022-09-17T03:52:19.848Z,11.6
2022-09-17T03:53:23.277Z,11.6
2022-09-17T03:54:25.819Z,11.6
2022-09-17T03:55:28.713Z,11.7
2022-09-17T03:56:31.800Z,11.7
2022-09-17T03:57:34.786Z,11.7
2022-09-17T03:58:37.305Z,11.7
2022-09-17T03:59:40.020Z,11.7
2022-09-17T04:00:42.456Z,11.7
2022-09-17T04:01:46.189Z,11.6
2022-09-17T04:02:50.510Z,11.6
2022-09-17T04:03:55.951Z,11.6
2022-09-17T04:04:59.136Z,11.6
2022-09-17T04:06:02.282Z,11.6
2022-09-17T04:07:04.615Z,11.7
2022-09-17T04:08:07.626Z,11.7
2022-09-17T04:09:10.805Z,11.7
2022-09-17T04:10:13.983Z,11.7
2022-09-17T04:11:17.145Z,11.5
2022-09-17T04:12:19.861Z,11.6
2022-09-17T04:13:23.008Z,11.6
2022-09-17T04:14:26.461Z,11.6
2022-09-17T04:15:29.814Z,11.7
2022-09-17T04:16:32.985Z,11.7
2022-09-17T04:17:35.971Z,11.6
2022-09-17T04:18:39.798Z,11.6
2022-09-17T04:19:43.953Z,11.5
2022-09-17T04:20:46.833Z,11.5
2022-09-17T04:21:49.907Z,11.6
2022-09-17T04:22:53.251Z,11.6
2022-09-17T04:23:56.675Z,11.6
2022-09-17T04:24:59.197Z,11.7
2022-09-17T04:26:02.451Z,11.5
2022-09-17T04:27:05.311Z,11.5
2022-09-17T04:28:08.778Z,11.5
2022-09-17T04:29:11.377Z,11.5
2022-09-17T04:30:14.526Z,11.5
2022-09-17T04:31:18.270Z,11.5
2022-09-17T04:32:21.678Z,11.5
2022-09-17T04:33:24.881Z,11.6
2022-09-17T04:34:28.182Z,11.6
2022-09-17T04:35:32.065Z,11.5
2022-09-17T04:36:34.941Z,11.5
2022-09-17T04:37:37.374Z,11.5
2022-09-17T04:38:40.531Z,11.6
2022-09-17T04:39:44.069Z,11.5
2022-09-17T04:40:47.233Z,11.5
2022-09-17T04:41:50.039Z,11.6
2022-09-17T04:42:52.280Z,11.5
2022-09-17T04:43:55.455Z,11.5
2022-09-17T04:44:58.256Z,11.4
2022-09-17T04:46:01.611Z,11.5
2022-09-17T04:47:04.398Z,11.5
2022-09-17T04:48:07.004Z,11.5
2022-09-17T04:49:09.643Z,11.5
2022-09-17T04:50:13.416Z,11.5
2022-09-17T04:51:17.580Z,11.4
2022-09-17T04:52:21.662Z,11.4
2022-09-17T04:53:24.469Z,11.5
2022-09-17T04:54:27.903Z,11.5
2022-09-17T04:55:30.784Z,11.4
2022-09-17T04:56:33.947Z,11.5
2022-09-17T04:57:36.383Z,11.5
2022-09-17T04:58:39.229Z,11.5
2022-09-17T04:59:42.664Z,11.4
2022-09-17T05:00:45.886Z,11.3
2022-09-17T05:01:49.959Z,11.3
2022-09-17T05:02:52.849Z,11.4
2022-09-17T05:03:56.286Z,11.4
2022-09-17T05:04:59.855Z,11.4
2022-09-17T05:06:03.847Z,11.4
2022-09-17T05:07:14.654Z,11.3
2022-09-17T05:08:17.471Z,11.3
2022-09-17T05:09:20.820Z,11.4
2022-09-17T05:10:23.912Z,11.3
2022-09-17T05:11:26.973Z,11.3
2022-09-17T05:12:36.210Z,11.2
2022-09-17T05:13:39.285Z,11.2
2022-09-17T05:14:41.723Z,11.2
2022-09-17T05:15:45.701Z,11.1
2022-09-17T05:16:48.898Z,11.1
2022-09-17T05:17:52.678Z,11.1
2022-09-17T05:18:55.020Z,11.2
2022-09-17T05:19:57.969Z,11.2
2022-09-17T05:21:01.078Z,11.2
2022-09-17T05:22:04.599Z,11.2
2022-09-17T05:23:08.816Z,11.1
2022-09-17T05:24:11.704Z,11
2022-09-17T05:25:14.591Z,11
2022-09-17T05:26:17.382Z,11
2022-09-17T05:27:20.910Z,11
2022-09-17T05:28:24.310Z,11.1
2022-09-17T05:29:27.379Z,11
2022-09-17T05:30:29.916Z,11
2022-09-17T05:31:33.684Z,11
2022-09-17T05:32:36.590Z,11
2022-09-17T05:33:39.313Z,11
2022-09-17T05:34:42.740Z,11.1
2022-09-17T05:35:45.898Z,11.1
2022-09-17T05:36:49.166Z,11.1
2022-09-17T05:37:52.952Z,11.1
2022-09-17T05:38:57.007Z,11.1
2022-09-17T05:39:59.848Z,11.1
2022-09-17T05:41:03.351Z,11.1
2022-09-17T05:42:06.590Z,11.1
2022-09-17T05:43:09.385Z,11
2022-09-17T05:44:19.160Z,11.1
2022-09-17T05:45:21.750Z,11.2
2022-09-17T05:46:25.198Z,11.2
2022-09-17T05:47:27.946Z,11.4
2022-09-17T05:48:31.256Z,11.3
2022-09-17T05:49:34.237Z,11.3
2022-09-17T05:50:36.769Z,11.3
2022-09-17T05:51:39.552Z,11.4
2022-09-17T05:52:42.541Z,11.5
2022-09-17T05:53:46.294Z,11.6
2022-09-17T05:54:50.539Z,11.5
2022-09-17T05:55:53.534Z,11.4
2022-09-17T05:56:56.317Z,11.3
2022-09-17T05:57:59.308Z,11.3
2022-09-17T05:59:02.525Z,11.4
2022-09-17T06:00:06.051Z,11.5
2022-09-17T06:01:08.843Z,11.5
2022-09-17T06:02:12.407Z,11.3
2022-09-17T06:03:16.555Z,11.4
2022-09-17T06:04:20.087Z,11.3
2022-09-17T06:05:22.075Z,11.3
2022-09-17T06:06:24.949Z,11.3
2022-09-17T06:07:28.018Z,11.3
2022-09-17T06:08:31.546Z,11.1
2022-09-17T06:09:35.321Z,11.3
2022-09-17T06:10:39.714Z,11.3
2022-09-17T06:11:42.039Z,11.4
2022-09-17T06:12:45.216Z,11.2
2022-09-17T06:13:47.981Z,11.2
2022-09-17T06:14:50.219Z,11.2
2022-09-17T06:15:53.716Z,11.3
2022-09-17T06:16:56.784Z,11.2
2022-09-17T06:17:59.919Z,11.2
2022-09-17T06:19:03.259Z,11.2
2022-09-17T06:20:07.029Z,11.3
2022-09-17T06:21:09.820Z,11.3
2022-09-17T06:22:12.995Z,11.3
2022-09-17T06:23:17.985Z,11.3
2022-09-17T06:24:20.890Z,11.3
2022-09-17T06:25:23.780Z,11.3
2022-09-17T06:26:27.686Z,11.4
2022-09-17T06:27:30.556Z,11.5
2022-09-17T06:28:41.382Z,11.5
2022-09-17T06:29:44.671Z,11.4
2022-09-17T06:30:47.546Z,11.5
2022-09-17T06:31:51.019Z,11.6
2022-09-17T06:32:54.049Z,11.4
2022-09-17T06:34:01.632Z,11.5
2022-09-17T06:35:04.359Z,11.6
2022-09-17T06:36:15.673Z,11.5
2022-09-17T06:37:19.123Z,11.4
2022-09-17T06:38:22.004Z,11.5
2022-09-17T06:39:25.385Z,11.3
2022-09-17T06:40:29.521Z,11.5
2022-09-17T06:41:34.119Z,11.6
2022-09-17T06:42:37.356Z,11.4
2022-09-17T06:43:40.418Z,11.5
2022-09-17T06:44:44.140Z,11.6
2022-09-17T06:45:47.240Z,11.7
2022-09-17T06:46:50.987Z,11.8
2022-09-17T06:47:53.920Z,11.8
2022-09-17T06:48:57.294Z,11.9
2022-09-17T06:50:00.466Z,11.8
2022-09-17T06:51:02.789Z,11.8
2022-09-17T06:52:05.673Z,11.8
2022-09-17T06:53:08.531Z,11.8
2022-09-17T06:54:11.592Z,11.8
2022-09-17T06:55:14.582Z,11.8
2022-09-17T06:56:18.662Z,11.9
2022-09-17T06:57:23.156Z,12
2022-09-17T06:58:25.397Z,12
2022-09-17T06:59:28.743Z,12.1
2022-09-17T07:00:31.607Z,12.1
2022-09-17T07:01:35.044Z,12.2
2022-09-17T07:02:37.883Z,12.2
2022-09-17T07:03:41.884Z,12.2
2022-09-17T07:04:45.059Z,12.2
2022-09-17T07:05:48.155Z,12.2
2022-09-17T07:06:51.232Z,12.1
2022-09-17T07:07:53.744Z,12.2
2022-09-17T07:08:56.815Z,12.2
2022-09-17T07:09:59.686Z,12.1
2022-09-17T07:11:02.978Z,12.2
2022-09-17T07:12:06.126Z,12.2
2022-09-17T07:13:10.570Z,12.3
2022-09-17T07:14:13.923Z,12.3
2022-09-17T07:15:16.524Z,12.4
2022-09-17T07:16:20.299Z,12.3
2022-09-17T07:17:23.863Z,12.4
2022-09-17T07:18:27.592Z,12.4
2022-09-17T07:19:30.110Z,12.3
2022-09-17T07:20:32.537Z,12.3
2022-09-17T07:21:35.347Z,12.4
2022-09-17T07:22:38.835Z,12.2
2022-09-17T07:23:41.925Z,12.3
2022-09-17T07:24:44.587Z,12.4
2022-09-17T07:25:47.660Z,12.4
2022-09-17T07:26:51.139Z,12.4
2022-09-17T07:27:54.822Z,12.5
2022-09-17T07:28:59.305Z,12.4
2022-09-17T07:30:01.867Z,12.4
2022-09-17T07:31:04.977Z,12.5
2022-09-17T07:32:07.399Z,12.5
2022-09-17T07:33:10.564Z,12.4
2022-09-17T07:34:13.086Z,12.5
2022-09-17T07:35:16.234Z,12.5
2022-09-17T07:36:19.222Z,12.6
2022-09-17T07:37:22.287Z,12.6
2022-09-17T07:38:25.153Z,12.7
2022-09-17T07:39:27.664Z,12.9
2022-09-17T07:40:31.842Z,12.8
2022-09-17T07:41:35.111Z,12.8
2022-09-17T07:42:38.013Z,12.8
2022-09-17T07:43:41.425Z,12.7
2022-09-17T07:44:45.366Z,12.8
2022-09-17T07:45:48.339Z,12.9
2022-09-17T07:46:51.595Z,13
2022-09-17T07:47:55.158Z,13.1
2022-09-17T07:48:58.614Z,13.1
2022-09-17T07:50:01.410Z,13
2022-09-17T07:51:04.671Z,13
2022-09-17T07:52:07.815Z,13
2022-09-17T07:53:10.340Z,13
2022-09-17T07:54:12.771Z,13
2022-09-17T07:55:15.650Z,13
2022-09-17T07:56:18.168Z,12.7
2022-09-17T07:57:21.246Z,12.9
2022-09-17T07:58:23.801Z,13.1
2022-09-17T07:59:27.051Z,12.9
2022-09-17T08:00:31.230Z,12.9
2022-09-17T08:01:34.580Z,12.9
2022-09-17T08:02:38.390Z,13.1
2022-09-17T08:03:41.828Z,12.9
2022-09-17T08:04:45.359Z,13.1
2022-09-17T08:05:48.803Z,12.9
2022-09-17T08:06:51.990Z,13
2022-09-17T08:07:54.787Z,13.1
2022-09-17T08:08:57.932Z,13.1
2022-09-17T08:10:01.029Z,13.1
2022-09-17T08:11:03.816Z,13.2
2022-09-17T08:12:06.775Z,13.3
2022-09-17T08:13:09.757Z,13.3
2022-09-17T08:14:13.110Z,13.7
2022-09-17T08:15:15.895Z,13.8
2022-09-17T08:16:20.678Z,13.6
2022-09-17T08:17:24.217Z,13.7
2022-09-17T08:18:27.596Z,13.5
2022-09-17T08:19:30.749Z,13.4
2022-09-17T08:20:33.353Z,13.4
2022-09-17T08:21:36.533Z,13.4
2022-09-17T08:22:39.878Z,13.4
2022-09-17T08:23:42.942Z,13.5
2022-09-17T08:24:46.436Z,13.6
2022-09-17T08:25:49.507Z,13.6
2022-09-17T08:26:52.335Z,13.7
2022-09-17T08:27:55.331Z,13.7
2022-09-17T08:28:59.217Z,13.7
2022-09-17T08:30:02.765Z,13.5
2022-09-17T08:31:06.860Z,13.4
2022-09-17T08:32:11.405Z,13.4
2022-09-17T08:33:14.268Z,13.5
2022-09-17T08:34:17.419Z,13.5
2022-09-17T08:35:20.529Z,13.6
2022-09-17T08:36:23.660Z,13.6
2022-09-17T08:37:26.529Z,13.8
2022-09-17T08:38:29.282Z,13.7
2022-09-17T08:39:32.502Z,13.9
2022-09-17T08:40:35.822Z,13.8
2022-09-17T08:41:38.635Z,13.9
2022-09-17T08:42:41.067Z,13.9
2022-09-17T08:43:44.422Z,13.8
2022-09-17T08:44:47.643Z,13.8
2022-09-17T08:45:54.813Z,13.9
2022-09-17T08:46:58.323Z,13.9
2022-09-17T08:48:02.970Z,14
2022-09-17T08:49:05.117Z,14
2022-09-17T08:50:07.852Z,14
2022-09-17T08:51:11.475Z,13.9
2022-09-17T08:52:13.994Z,13.7
2022-09-17T08:53:17.272Z,13.9
2022-09-17T08:54:20.164Z,13.9
2022-09-17T08:55:23.159Z,13.8
2022-09-17T08:56:27.255Z,14
2022-09-17T08:57:29.777Z,14.1
2022-09-17T08:58:32.940Z,14
2022-09-17T08:59:36.095Z,13.9
2022-09-17T09:00:38.994Z,14
2022-09-17T09:01:43.152Z,14
2022-09-17T09:02:46.482Z,14
2022-09-17T09:03:50.874Z,14
2022-09-17T09:04:53.746Z,13.9
2022-09-17T09:05:56.563Z,13.7
2022-09-17T09:06:59.423Z,13.7
2022-09-17T09:08:02.698Z,13.8
2022-09-17T09:09:05.926Z,13.9
2022-09-17T09:10:09.576Z,14.2
2022-09-17T09:11:12.798Z,14.2
2022-09-17T09:12:16.493Z,14.4
2022-09-17T09:13:19.918Z,13.9
2022-09-17T09:14:22.994Z,13.8
2022-09-17T09:15:26.445Z,14.1
2022-09-17T09:16:29.950Z,14.3
2022-09-17T09:17:33.886Z,14.5
2022-09-17T09:18:37.682Z,14.1
2022-09-17T09:19:42.181Z,14.1
2022-09-17T09:20:44.887Z,14.4
2022-09-17T09:21:48.326Z,14.2
2022-09-17T09:22:51.370Z,14.1
2022-09-17T09:23:54.266Z,14.4
2022-09-17T09:24:57.058Z,14.3
2022-09-17T09:26:00.867Z,14.6
2022-09-17T09:27:04.223Z,14.8
2022-09-17T09:28:07.284Z,14.9
2022-09-17T09:29:10.422Z,15.1
2022-09-17T09:30:13.498Z,14.9
2022-09-17T09:31:16.949Z,14.7
2022-09-17T09:32:20.503Z,14.9
2022-09-17T09:33:23.414Z,14.7
2022-09-17T09:34:26.816Z,14.7
2022-09-17T09:35:30.732Z,15
2022-09-17T09:36:33.331Z,14.9
2022-09-17T09:37:36.401Z,15
2022-09-17T09:38:39.168Z,15.3
2022-09-17T09:39:47.875Z,15.3
2022-09-17T09:40:51.501Z,15.3
2022-09-17T09:41:54.491Z,15.4
2022-09-17T09:42:57.488Z,15.5
2022-09-17T09:44:07.191Z,15.7
2022-09-17T09:45:10.065Z,16
2022-09-17T09:46:13.209Z,15.9
2022-09-17T09:47:16.136Z,16.2
2022-09-17T09:48:19.408Z,16.6
2022-09-17T09:49:22.725Z,17.1
2022-09-17T09:50:31.569Z,16.6
2022-09-17T09:52:10.414Z,17.2
2022-09-17T09:53:13.785Z,17.1
2022-09-17T09:54:17.113Z,16.9
2022-09-17T09:55:27.363Z,17.4
2022-09-17T09:56:30.247Z,17.1
2022-09-17T09:57:33.984Z,16.9
2022-09-17T09:58:36.980Z,17.4
2022-09-17T09:59:40.165Z,16.9
2022-09-17T10:00:42.865Z,16.8
2022-09-17T10:01:46.084Z,16.7
2022-09-17T10:02:50.448Z,16.6
2022-09-17T10:03:54.317Z,16.4
2022-09-17T10:04:56.879Z,16.5
2022-09-17T10:06:00.056Z,16.8
2022-09-17T10:07:03.400Z,16.7
2022-09-17T10:08:07.453Z,17.1
2022-09-17T10:09:09.962Z,16.9
2022-09-17T10:10:12.512Z,16.6
2022-09-17T10:11:15.890Z,16.7
2022-09-17T10:12:18.693Z,16.5
2022-09-17T10:13:21.498Z,17.1
2022-09-17T10:14:24.591Z,17.4
2022-09-17T10:15:27.406Z,18
2022-09-17T10:16:30.608Z,18
2022-09-17T10:17:33.435Z,18
2022-09-17T10:18:36.785Z,17.9
2022-09-17T10:19:40.227Z,18.5
2022-09-17T10:20:43.438Z,18.1
2022-09-17T10:21:46.678Z,17.1
2022-09-17T10:22:49.655Z,16.7
2022-09-17T10:23:53.884Z,17
2022-09-17T10:24:57.315Z,16.9
2022-09-17T10:26:00.473Z,16.5
2022-09-17T10:27:03.936Z,16.9
2022-09-17T10:28:06.754Z,17.1
2022-09-17T10:29:09.471Z,17.1
2022-09-17T10:30:13.092Z,17.5
2022-09-17T10:31:16.406Z,17.6
2022-09-17T10:32:19.701Z,18.1
2022-09-17T10:33:22.164Z,18.1
2022-09-17T10:34:25.240Z,18.5
2022-09-17T10:35:28.034Z,18.8
2022-09-17T10:36:38.679Z,18.6
2022-09-17T10:37:42.687Z,18.4
2022-09-17T10:38:46.898Z,18.2
2022-09-17T10:39:51.226Z,18.4
2022-09-17T10:40:54.126Z,18.3
2022-09-17T10:41:57.220Z,18.2
2022-09-17T10:42:59.727Z,18.4
2022-09-17T10:44:02.851Z,18.4
2022-09-17T10:45:05.924Z,18.9
2022-09-17T10:46:09.352Z,19.2
2022-09-17T10:47:12.201Z,18.5
2022-09-17T10:48:15.824Z,18.8
2022-09-17T10:49:18.680Z,18.2
2022-09-17T10:50:21.559Z,17.9
2022-09-17T10:51:25.369Z,17.6
2022-09-17T10:52:29.195Z,17.9
2022-09-17T10:53:32.907Z,17.3
2022-09-17T10:54:36.745Z,17.5
2022-09-17T10:55:40.547Z,16.8
2022-09-17T10:56:43.970Z,16.5
2022-09-17T10:57:46.792Z,16.3
2022-09-17T10:58:49.863Z,15.8
2022-09-17T10:59:52.645Z,16.2
2022-09-17T11:00:55.520Z,16.4
2022-09-17T11:01:59.300Z,16.4
2022-09-17T11:03:02.509Z,16.1
2022-09-17T11:04:05.512Z,15.8
2022-09-17T11:05:08.505Z,15.8
2022-09-17T11:06:15.929Z,15.7
2022-09-17T11:07:19.077Z,16.8
2022-09-17T11:08:22.641Z,17.1
2022-09-17T11:09:25.843Z,17.1
2022-09-17T11:10:29.049Z,17
2022-09-17T11:11:32.826Z,16.5
2022-09-17T11:12:35.957Z,15.9
2022-09-17T11:13:39.017Z,16.2
2022-09-17T11:14:42.250Z,16.1
2022-09-17T11:15:53.446Z,16.2
2022-09-17T11:16:56.990Z,16.1
2022-09-17T11:17:59.788Z,16.2
2022-09-17T11:19:03.058Z,16.4
2022-09-17T11:20:06.116Z,15.7
2022-09-17T11:21:08.829Z,15.7
2022-09-17T11:22:11.685Z,15.7
2022-09-17T11:23:14.804Z,15.7
2022-09-17T11:24:18.020Z,15.6
2022-09-17T11:25:21.798Z,15.4
2022-09-17T11:26:25.385Z,15.2
2022-09-17T11:27:29.161Z,15
2022-09-17T11:28:32.026Z,14.6
2022-09-17T11:29:35.443Z,14.6
2022-09-17T11:30:39.150Z,14.8
2022-09-17T11:31:41.962Z,14.6
2022-09-17T11:32:44.944Z,14.8
2022-09-17T11:33:47.740Z,14.3
2022-09-17T11:34:50.739Z,14.9
2022-09-17T11:35:53.458Z,14.8
2022-09-17T11:36:56.357Z,14.7
2022-09-17T11:38:01.735Z,14.6
2022-09-17T11:39:04.805Z,14.8
2022-09-17T11:40:08.136Z,14.9
2022-09-17T11:41:11.593Z,15.1
2022-09-17T11:42:15.433Z,14.8
2022-09-17T11:43:18.647Z,15.4
2022-09-17T11:44:21.805Z,15.4
2022-09-17T11:45:24.800Z,15.5
2022-09-17T11:46:27.542Z,15.3
2022-09-17T11:47:30.448Z,15.1
2022-09-17T11:48:33.314Z,15.3
2022-09-17T11:49:36.748Z,16.1
2022-09-17T11:50:40.017Z,16.3
2022-09-17T11:51:43.183Z,16.6
2022-09-17T11:52:46.266Z,16.4
2022-09-17T11:53:49.479Z,16.8
2022-09-17T11:54:51.937Z,17
2022-09-17T11:55:54.673Z,17.2
2022-09-17T11:56:58.266Z,17.3
2022-09-17T11:58:02.105Z,17.5
2022-09-17T11:59:06.175Z,17.8
2022-09-17T12:00:08.898Z,17.8
2022-09-17T12:01:12.635Z,17.4
2022-09-17T12:02:16.017Z,17.2
2022-09-17T12:03:19.080Z,17.1
2022-09-17T12:04:22.574Z,16.9
2022-09-17T12:05:25.442Z,16.9
2022-09-17T12:06:28.254Z,16.6
2022-09-17T12:07:31.405Z,16.4
2022-09-17T12:08:35.214Z,16.2
2022-09-17T12:09:38.286Z,16.2
2022-09-17T12:10:40.726Z,16.3
2022-09-17T12:11:44.296Z,16.8
2022-09-17T12:12:52.418Z,17.2
2022-09-17T12:13:56.136Z,17.7
2022-09-17T12:15:00.182Z,17.8
2022-09-17T12:16:03.751Z,17.3
2022-09-17T12:17:06.296Z,17.5
2022-09-17T12:18:34.859Z,17.7
2022-09-17T12:19:38.114Z,18.8
2022-09-17T12:20:42.112Z,20.4
2022-09-17T12:21:45.381Z,20.2
2022-09-17T12:22:48.455Z,21.1
2022-09-17T12:23:51.277Z,20.1
2022-09-17T12:24:54.077Z,20.8
2022-09-17T12:25:56.864Z,20.9
2022-09-17T12:27:00.080Z,20.7
2022-09-17T12:28:02.948Z,21
2022-09-17T12:29:06.430Z,21.5
2022-09-17T12:30:10.476Z,20.5
2022-09-17T12:31:14.192Z,21.1
2022-09-17T12:32:17.448Z,19.8
2022-09-17T12:33:20.535Z,20.4
2022-09-17T12:34:23.543Z,19.5
2022-09-17T12:36:06.772Z,19
2022-09-17T12:37:10.072Z,17.9
2022-09-17T12:38:13.147Z,17.5
2022-09-17T12:39:16.318Z,17.4
2022-09-17T12:40:19.409Z,17.7
2022-09-17T12:41:21.951Z,17.1
2022-09-17T12:42:25.203Z,17.9
2022-09-17T12:43:28.635Z,17.4
2022-09-17T12:44:32.445Z,17.6
2022-09-17T12:45:36.482Z,17.4
2022-09-17T12:46:40.030Z,16.9
2022-09-17T12:47:43.107Z,17
2022-09-17T12:48:46.200Z,17.5
2022-09-17T12:49:49.346Z,17.7
2022-09-17T12:50:52.461Z,17.3
2022-09-17T12:51:54.681Z,17.3
2022-09-17T12:52:57.929Z,16.7
2022-09-17T12:54:01.660Z,16.6
2022-09-17T12:55:05.032Z,17.1
2022-09-17T12:56:07.632Z,17.5
2022-09-17T12:57:10.142Z,17.3
2022-09-17T12:58:13.603Z,16.7
2022-09-17T12:59:16.731Z,16.9
2022-09-17T13:00:19.829Z,17.2
2022-09-17T13:01:23.647Z,16.9
2022-09-17T13:02:26.268Z,16.5
2022-09-17T13:03:29.560Z,17
2022-09-17T13:05:03.461Z,16.9
2022-09-17T13:06:06.454Z,17.2
2022-09-17T13:07:09.514Z,17.2
2022-09-17T13:08:13.217Z,17.1
2022-09-17T13:09:15.932Z,17
2022-09-17T13:10:19.267Z,17.3
2022-09-17T13:11:21.575Z,17.2
2022-09-17T13:12:24.362Z,17.2
2022-09-17T13:13:27.646Z,16.9
2022-09-17T13:14:31.282Z,16.6
2022-09-17T13:15:34.978Z,17
2022-09-17T13:16:39.571Z,17.2
2022-09-17T13:17:42.178Z,16.6
2022-09-17T13:19:18.589Z,16.3
2022-09-17T13:20:22.358Z,16.2
2022-09-17T13:21:25.151Z,16.2
2022-09-17T13:22:28.879Z,16.6
2022-09-17T13:23:31.698Z,16.8
2022-09-17T13:24:34.296Z,15.9
2022-09-17T13:25:37.094Z,16.1
2022-09-17T13:26:40.245Z,16.5
2022-09-17T13:27:43.312Z,16.4
2022-09-17T13:28:48.930Z,16.5
2022-09-17T13:29:52.814Z,16
2022-09-17T13:30:56.278Z,16
2022-09-17T13:32:00.329Z,16.3
2022-09-17T13:33:02.591Z,16
2022-09-17T13:34:05.462Z,16.3
2022-09-17T13:35:08.636Z,16.5
2022-09-17T13:36:12.011Z,16.7
2022-09-17T13:37:14.877Z,16.5
2022-09-17T13:38:25.180Z,16.5
2022-09-17T13:39:28.266Z,16.7
2022-09-17T13:40:31.482Z,16.5
2022-09-17T13:41:34.154Z,15.7
2022-09-17T13:42:37.018Z,15.8
2022-09-17T13:43:39.737Z,15.8
2022-09-17T13:44:42.754Z,15.5
2022-09-17T13:45:45.908Z,16
2022-09-17T13:46:50.425Z,16.2
2022-09-17T13:47:54.375Z,15.8
2022-09-17T13:48:57.815Z,16.5
2022-09-17T13:50:00.632Z,15.7
2022-09-17T13:51:03.413Z,15.6
2022-09-17T13:52:13.176Z,16
2022-09-17T13:53:15.942Z,16
2022-09-17T13:54:19.111Z,15.9
2022-09-17T13:55:21.996Z,15.7
2022-09-17T13:56:25.453Z,15.6
2022-09-17T13:57:27.509Z,15.6
2022-09-17T13:58:30.671Z,15.6
2022-09-17T13:59:34.186Z,15.6
2022-09-17T14:00:37.647Z,15.7
2022-09-17T14:01:41.438Z,15.9
2022-09-17T14:02:45.115Z,15.8
2022-09-17T14:03:49.372Z,16.3
2022-09-17T14:04:52.606Z,16.5
2022-09-17T14:05:56.051Z,16.5
2022-09-17T14:06:59.300Z,16.9
2022-09-17T14:08:02.120Z,16.9
2022-09-17T14:09:05.547Z,17.2
2022-09-17T14:10:08.060Z,17.5